sensor_id;sensor_type;location;lat;lon;timestamp;temperature;humidity
14551;DHT22;7362;50.956;4.184;2022-10-28T00:01:23;19.30;99.90
14551;DHT22;7362;50.956;4.184;2022-10-28T00:04:05;19.30;99.90
14551;DHT22;7362;50.956;4.184;2022-10-28T00:06:33;19.40;99.90
14551;DHT22;7362;50.956;4.184;2022-10-28T00:09:02;19.30;99.90
14551;DHT22;7362;50.956;4.184;2022-10-28T00:11:30;19.30;99.90
14551;DHT22;7362;50.956;4.184;2022-10-28T00:13:58;19.30;99.90
14551;DHT22;7362;50.956;4.184;2022-10-28T00:16:27;19.30;99.90
14551;DHT22;7362;50.956;4.184;2022-10-28T00:18:56;19.40;99.90
14551;DHT22;7362;50.956;4.184;2022-10-28T00:21:26;19.30;99.90
14551;DHT22;7362;50.956;4.184;2022-10-28T00:23:53;19.30;99.90
14551;DHT22;7362;50.956;4.184;2022-10-28T00:26:22;19.30;99.90
14551;DHT22;7362;50.956;4.184;2022-10-28T00:28:55;19.40;99.90
14551;DHT22;7362;50.956;4.184;2022-10-28T00:31:23;19.40;99.90
14551;DHT22;7362;50.956;4.184;2022-10-28T00:33:51;19.30;99.90
14551;DHT22;7362;50.956;4.184;2022-10-28T00:36:22;19.40;99.90
14551;DHT22;7362;50.956;4.184;2022-10-28T00:38:52;19.40;99.90
14551;DHT22;7362;50.956;4.184;2022-10-28T00:41:23;19.40;99.90
14551;DHT22;7362;50.956;4.184;2022-10-28T00:43:58;19.30;99.90
14551;DHT22;7362;50.956;4.184;2022-10-28T00:46:42;19.30;99.90
14551;DHT22;7362;50.956;4.184;2022-10-28T00:49:32;19.30;99.90
14551;DHT22;7362;50.956;4.184;2022-10-28T00:55:22;19.30;99.90
14551;DHT22;7362;50.956;4.184;2022-10-28T00:57:54;19.30;99.90
14551;DHT22;7362;50.956;4.184;2022-10-28T01:00:25;19.30;99.90
14551;DHT22;7362;50.956;4.184;2022-10-28T01:06:13;19.30;99.90
14551;DHT22;7362;50.956;4.184;2022-10-28T01:08:49;19.30;99.90
14551;DHT22;7362;50.956;4.184;2022-10-28T01:11:25;19.30;99.90
14551;DHT22;7362;50.956;4.184;2022-10-28T01:31:38;19.30;99.90
14551;DHT22;7362;50.956;4.184;2022-10-28T01:34:32;19.30;99.90
14551;DHT22;7362;50.956;4.184;2022-10-28T01:37:18;19.30;99.90
14551;DHT22;7362;50.956;4.184;2022-10-28T01:40:26;19.30;99.90
14551;DHT22;7362;50.956;4.184;2022-10-28T01:45:57;19.30;99.90
14551;DHT22;7362;50.956;4.184;2022-10-28T01:49:01;19.30;99.90
14551;DHT22;7362;50.956;4.184;2022-10-28T01:51:35;19.20;99.90
14551;DHT22;7362;50.956;4.184;2022-10-28T01:54:06;19.20;99.90
14551;DHT22;7362;50.956;4.184;2022-10-28T01:56:35;19.20;99.90
14551;DHT22;7362;50.956;4.184;2022-10-28T01:59:04;19.20;99.90
14551;DHT22;7362;50.956;4.184;2022-10-28T02:01:33;19.20;99.90
14551;DHT22;7362;50.956;4.184;2022-10-28T02:03:58;19.20;99.90
14551;DHT22;7362;50.956;4.184;2022-10-28T02:06:27;19.20;99.90
14551;DHT22;7362;50.956;4.184;2022-10-28T02:09:21;19.20;99.90
14551;DHT22;7362;50.956;4.184;2022-10-28T02:17:49;19.10;99.90
14551;DHT22;7362;50.956;4.184;2022-10-28T02:21:00;19.10;99.90
14551;DHT22;7362;50.956;4.184;2022-10-28T02:24:09;19.10;99.90
14551;DHT22;7362;50.956;4.184;2022-10-28T02:26:37;19.10;99.90
14551;DHT22;7362;50.956;4.184;2022-10-28T02:29:15;19.10;99.90
14551;DHT22;7362;50.956;4.184;2022-10-28T02:31:48;19.10;99.90
14551;DHT22;7362;50.956;4.184;2022-10-28T02:34:36;19.00;99.90
14551;DHT22;7362;50.956;4.184;2022-10-28T02:37:10;19.00;99.90
14551;DHT22;7362;50.956;4.184;2022-10-28T02:39:40;19.00;99.90
14551;DHT22;7362;50.956;4.184;2022-10-28T02:42:32;19.10;99.90
14551;DHT22;7362;50.956;4.184;2022-10-28T02:45:06;19.00;99.90
14551;DHT22;7362;50.956;4.184;2022-10-28T02:47:37;19.00;99.90
14551;DHT22;7362;50.956;4.184;2022-10-28T02:50:07;19.00;99.90
14551;DHT22;7362;50.956;4.184;2022-10-28T02:52:35;19.00;99.90
14551;DHT22;7362;50.956;4.184;2022-10-28T02:55:03;19.00;99.90
14551;DHT22;7362;50.956;4.184;2022-10-28T02:57:39;18.90;99.90
14551;DHT22;7362;50.956;4.184;2022-10-28T03:00:10;18.90;99.90
14551;DHT22;7362;50.956;4.184;2022-10-28T03:02:36;18.80;99.90
14551;DHT22;7362;50.956;4.184;2022-10-28T03:05:04;18.80;99.90
14551;DHT22;7362;50.956;4.184;2022-10-28T03:07:32;18.80;99.90
14551;DHT22;7362;50.956;4.184;2022-10-28T03:09:58;18.80;99.90
14551;DHT22;7362;50.956;4.184;2022-10-28T03:12:27;18.80;99.90
14551;DHT22;7362;50.956;4.184;2022-10-28T03:14:56;18.80;99.90
14551;DHT22;7362;50.956;4.184;2022-10-28T03:17:26;18.80;99.90
14551;DHT22;7362;50.956;4.184;2022-10-28T03:20:03;18.70;99.90
14551;DHT22;7362;50.956;4.184;2022-10-28T03:22:32;18.70;99.90
14551;DHT22;7362;50.956;4.184;2022-10-28T03:28:20;18.70;99.90
14551;DHT22;7362;50.956;4.184;2022-10-28T03:30:46;18.70;99.90
14551;DHT22;7362;50.956;4.184;2022-10-28T03:33:12;18.70;99.90
14551;DHT22;7362;50.956;4.184;2022-10-28T03:35:38;18.70;99.90
14551;DHT22;7362;50.956;4.184;2022-10-28T03:38:03;18.70;99.90
14551;DHT22;7362;50.956;4.184;2022-10-28T03:40:29;18.70;99.90
14551;DHT22;7362;50.956;4.184;2022-10-28T03:42:56;18.70;99.90
14551;DHT22;7362;50.956;4.184;2022-10-28T03:45:22;18.70;99.90
14551;DHT22;7362;50.956;4.184;2022-10-28T03:47:47;18.70;99.90
14551;DHT22;7362;50.956;4.184;2022-10-28T03:50:13;18.70;99.90
14551;DHT22;7362;50.956;4.184;2022-10-28T03:52:40;18.70;99.90
14551;DHT22;7362;50.956;4.184;2022-10-28T03:55:07;18.70;99.90
14551;DHT22;7362;50.956;4.184;2022-10-28T03:57:34;18.70;99.90
14551;DHT22;7362;50.956;4.184;2022-10-28T03:59:59;18.60;99.90
14551;DHT22;7362;50.956;4.184;2022-10-28T04:02:27;18.70;99.90
14551;DHT22;7362;50.956;4.184;2022-10-28T04:04:54;18.60;99.90
14551;DHT22;7362;50.956;4.184;2022-10-28T04:07:20;18.60;99.90
14551;DHT22;7362;50.956;4.184;2022-10-28T04:09:48;18.60;99.90
14551;DHT22;7362;50.956;4.184;2022-10-28T04:12:25;18.60;99.90
14551;DHT22;7362;50.956;4.184;2022-10-28T04:14:54;18.50;99.90
14551;DHT22;7362;50.956;4.184;2022-10-28T04:17:19;18.50;99.90
14551;DHT22;7362;50.956;4.184;2022-10-28T04:19:45;18.50;99.90
14551;DHT22;7362;50.956;4.184;2022-10-28T04:22:12;18.60;99.90
14551;DHT22;7362;50.956;4.184;2022-10-28T04:24:38;18.50;99.90
14551;DHT22;7362;50.956;4.184;2022-10-28T04:27:03;18.50;99.90
14551;DHT22;7362;50.956;4.184;2022-10-28T04:29:30;18.50;99.90
14551;DHT22;7362;50.956;4.184;2022-10-28T04:31:56;18.40;99.90
14551;DHT22;7362;50.956;4.184;2022-10-28T04:34:21;18.40;99.90
14551;DHT22;7362;50.956;4.184;2022-10-28T04:36:48;18.50;99.90
14551;DHT22;7362;50.956;4.184;2022-10-28T04:39:14;17.90;99.90
14551;DHT22;7362;50.956;4.184;2022-10-28T04:41:40;18.40;99.90
14551;DHT22;7362;50.956;4.184;2022-10-28T04:44:06;18.40;99.90
14551;DHT22;7362;50.956;4.184;2022-10-28T04:46:32;18.40;99.90
14551;DHT22;7362;50.956;4.184;2022-10-28T04:48:59;18.40;99.90
14551;DHT22;7362;50.956;4.184;2022-10-28T04:51:25;18.40;99.90
14551;DHT22;7362;50.956;4.184;2022-10-28T04:53:50;18.40;99.90
14551;DHT22;7362;50.956;4.184;2022-10-28T04:56:18;18.40;99.90
14551;DHT22;7362;50.956;4.184;2022-10-28T04:58:47;18.40;99.90
14551;DHT22;7362;50.956;4.184;2022-10-28T05:01:17;18.40;99.90
14551;DHT22;7362;50.956;4.184;2022-10-28T05:03:44;18.40;99.90
14551;DHT22;7362;50.956;4.184;2022-10-28T05:06:10;18.50;99.90
14551;DHT22;7362;50.956;4.184;2022-10-28T05:08:36;18.50;99.90
14551;DHT22;7362;50.956;4.184;2022-10-28T05:11:08;18.50;99.90
14551;DHT22;7362;50.956;4.184;2022-10-28T05:13:33;18.60;99.90
14551;DHT22;7362;50.956;4.184;2022-10-28T05:16:00;18.60;99.90
14551;DHT22;7362;50.956;4.184;2022-10-28T05:18:28;18.60;99.90
14551;DHT22;7362;50.956;4.184;2022-10-28T05:20:53;18.60;99.90
14551;DHT22;7362;50.956;4.184;2022-10-28T05:23:24;18.60;99.90
14551;DHT22;7362;50.956;4.184;2022-10-28T05:25:50;18.60;99.90
14551;DHT22;7362;50.956;4.184;2022-10-28T05:28:18;18.60;99.90
14551;DHT22;7362;50.956;4.184;2022-10-28T05:30:45;18.60;99.90
14551;DHT22;7362;50.956;4.184;2022-10-28T05:33:11;18.50;99.90
14551;DHT22;7362;50.956;4.184;2022-10-28T05:35:38;18.60;99.90
14551;DHT22;7362;50.956;4.184;2022-10-28T05:38:05;18.50;99.90
14551;DHT22;7362;50.956;4.184;2022-10-28T05:40:32;18.60;99.90
14551;DHT22;7362;50.956;4.184;2022-10-28T05:42:59;18.50;99.90
14551;DHT22;7362;50.956;4.184;2022-10-28T05:45:26;18.60;99.90
14551;DHT22;7362;50.956;4.184;2022-10-28T05:47:53;18.50;99.90
14551;DHT22;7362;50.956;4.184;2022-10-28T05:50:19;18.60;99.90
14551;DHT22;7362;50.956;4.184;2022-10-28T05:52:53;18.50;99.90
14551;DHT22;7362;50.956;4.184;2022-10-28T05:55:20;18.50;99.90
14551;DHT22;7362;50.956;4.184;2022-10-28T05:57:50;18.50;99.90
14551;DHT22;7362;50.956;4.184;2022-10-28T06:00:21;18.40;99.90
14551;DHT22;7362;50.956;4.184;2022-10-28T06:03:04;18.40;99.90
14551;DHT22;7362;50.956;4.184;2022-10-28T06:05:36;18.50;99.90
14551;DHT22;7362;50.956;4.184;2022-10-28T06:08:04;18.50;99.90
14551;DHT22;7362;50.956;4.184;2022-10-28T06:10:30;18.50;99.90
14551;DHT22;7362;50.956;4.184;2022-10-28T06:12:56;18.40;99.90
14551;DHT22;7362;50.956;4.184;2022-10-28T06:15:24;18.50;99.90
14551;DHT22;7362;50.956;4.184;2022-10-28T06:17:51;18.40;99.90
14551;DHT22;7362;50.956;4.184;2022-10-28T06:20:18;18.40;99.90
14551;DHT22;7362;50.956;4.184;2022-10-28T06:22:54;18.40;99.90
14551;DHT22;7362;50.956;4.184;2022-10-28T06:25:23;18.30;99.90
14551;DHT22;7362;50.956;4.184;2022-10-28T06:28:07;18.20;99.90
14551;DHT22;7362;50.956;4.184;2022-10-28T06:30:47;18.30;99.90
14551;DHT22;7362;50.956;4.184;2022-10-28T06:33:14;18.30;99.90
14551;DHT22;7362;50.956;4.184;2022-10-28T06:35:48;18.40;99.90
14551;DHT22;7362;50.956;4.184;2022-10-28T06:38:14;18.30;99.90
14551;DHT22;7362;50.956;4.184;2022-10-28T06:44:05;18.40;99.90
14551;DHT22;7362;50.956;4.184;2022-10-28T06:46:48;18.40;99.90
14551;DHT22;7362;50.956;4.184;2022-10-28T06:49:22;18.40;99.90
14551;DHT22;7362;50.956;4.184;2022-10-28T06:57:26;18.50;99.90
14551;DHT22;7362;50.956;4.184;2022-10-28T08:39:04;19.80;99.90
14551;DHT22;7362;50.956;4.184;2022-10-28T08:41:49;19.80;99.90
14551;DHT22;7362;50.956;4.184;2022-10-28T08:47:39;19.70;99.90
14551;DHT22;7362;50.956;4.184;2022-10-28T09:00:36;19.70;99.90
14551;DHT22;7362;50.956;4.184;2022-10-28T09:51:27;21.20;99.90
14551;DHT22;7362;50.956;4.184;2022-10-28T09:54:39;20.70;99.90
14551;DHT22;7362;50.956;4.184;2022-10-28T09:57:09;21.40;99.90
14551;DHT22;7362;50.956;4.184;2022-10-28T10:02:29;21.50;99.90
14551;DHT22;7362;50.956;4.184;2022-10-28T10:05:17;21.60;99.90
14551;DHT22;7362;50.956;4.184;2022-10-28T10:08:03;21.70;99.90
14551;DHT22;7362;50.956;4.184;2022-10-28T10:13:32;22.00;99.90
14551;DHT22;7362;50.956;4.184;2022-10-28T10:16:14;22.00;99.90
14551;DHT22;7362;50.956;4.184;2022-10-28T10:19:16;22.10;99.90
14551;DHT22;7362;50.956;4.184;2022-10-28T10:21:59;22.30;99.90
14551;DHT22;7362;50.956;4.184;2022-10-28T10:24:58;22.30;99.90
14551;DHT22;7362;50.956;4.184;2022-10-28T10:27:33;22.40;99.90
14551;DHT22;7362;50.956;4.184;2022-10-28T10:38:51;22.80;99.90
14551;DHT22;7362;50.956;4.184;2022-10-28T10:45:38;22.70;99.90
14551;DHT22;7362;50.956;4.184;2022-10-28T10:48:13;22.70;99.90
14551;DHT22;7362;50.956;4.184;2022-10-28T10:50:53;22.80;99.90
14551;DHT22;7362;50.956;4.184;2022-10-28T10:53:31;22.70;99.90
14551;DHT22;7362;50.956;4.184;2022-10-28T11:02:43;22.70;99.90
14551;DHT22;7362;50.956;4.184;2022-10-28T11:33:02;22.80;99.90
14551;DHT22;7362;50.956;4.184;2022-10-28T11:35:55;22.80;99.90
14551;DHT22;7362;50.956;4.184;2022-10-28T11:38:58;22.60;99.90
14551;DHT22;7362;50.956;4.184;2022-10-28T11:45:08;22.80;99.90
14551;DHT22;7362;50.956;4.184;2022-10-28T11:48:02;22.90;99.90
14551;DHT22;7362;50.956;4.184;2022-10-28T11:53:47;22.80;99.90
14551;DHT22;7362;50.956;4.184;2022-10-28T12:08:03;22.80;99.90
14551;DHT22;7362;50.956;4.184;2022-10-28T12:13:59;23.00;99.90
14551;DHT22;7362;50.956;4.184;2022-10-28T12:19:33;22.80;99.90
14551;DHT22;7362;50.956;4.184;2022-10-28T12:22:26;22.70;99.90
14551;DHT22;7362;50.956;4.184;2022-10-28T12:24:54;22.70;99.90
14551;DHT22;7362;50.956;4.184;2022-10-28T12:30:33;22.70;99.90
14551;DHT22;7362;50.956;4.184;2022-10-28T12:39:08;22.60;99.90
14551;DHT22;7362;50.956;4.184;2022-10-28T12:44:31;22.70;99.90
14551;DHT22;7362;50.956;4.184;2022-10-28T12:47:33;22.80;99.90
14551;DHT22;7362;50.956;4.184;2022-10-28T13:01:08;22.70;99.90
14551;DHT22;7362;50.956;4.184;2022-10-28T13:03:49;22.70;99.90
14551;DHT22;7362;50.956;4.184;2022-10-28T13:09:34;22.60;99.90
14551;DHT22;7362;50.956;4.184;2022-10-28T13:27:00;22.50;99.90
14551;DHT22;7362;50.956;4.184;2022-10-28T13:29:36;22.50;99.90
14551;DHT22;7362;50.956;4.184;2022-10-28T13:35:29;22.60;99.90
14551;DHT22;7362;50.956;4.184;2022-10-28T13:42:28;22.60;99.90
14551;DHT22;7362;50.956;4.184;2022-10-28T13:53:35;23.20;99.90
14551;DHT22;7362;50.956;4.184;2022-10-28T13:59:00;23.00;99.90
14551;DHT22;7362;50.956;4.184;2022-10-28T14:04:35;23.40;99.90
14551;DHT22;7362;50.956;4.184;2022-10-28T14:07:22;23.40;99.90
14551;DHT22;7362;50.956;4.184;2022-10-28T14:13:18;23.40;99.90
14551;DHT22;7362;50.956;4.184;2022-10-28T14:15:47;23.30;99.90
14551;DHT22;7362;50.956;4.184;2022-10-28T14:18:32;23.30;99.90
14551;DHT22;7362;50.956;4.184;2022-10-28T14:21:16;23.20;99.90
14551;DHT22;7362;50.956;4.184;2022-10-28T14:35:16;22.90;99.90
14551;DHT22;7362;50.956;4.184;2022-10-28T14:38:15;22.90;99.90
14551;DHT22;7362;50.956;4.184;2022-10-28T14:40:49;23.00;99.90
14551;DHT22;7362;50.956;4.184;2022-10-28T14:50:27;23.30;99.90
14551;DHT22;7362;50.956;4.184;2022-10-28T14:56:25;23.40;99.90
14551;DHT22;7362;50.956;4.184;2022-10-28T15:02:36;23.00;99.90
14551;DHT22;7362;50.956;4.184;2022-10-28T15:08:44;23.00;99.90
14551;DHT22;7362;50.956;4.184;2022-10-28T15:11:23;22.90;99.90
14551;DHT22;7362;50.956;4.184;2022-10-28T15:20:51;22.60;99.90
14551;DHT22;7362;50.956;4.184;2022-10-28T15:24:18;22.50;99.90
14551;DHT22;7362;50.956;4.184;2022-10-28T15:27:31;22.40;99.90
14551;DHT22;7362;50.956;4.184;2022-10-28T15:46:57;22.10;99.90
14551;DHT22;7362;50.956;4.184;2022-10-28T15:52:51;22.10;99.90
14551;DHT22;7362;50.956;4.184;2022-10-28T15:55:31;22.00;99.90
14551;DHT22;7362;50.956;4.184;2022-10-28T15:58:30;21.90;99.90
14551;DHT22;7362;50.956;4.184;2022-10-28T16:01:00;21.90;99.90
14551;DHT22;7362;50.956;4.184;2022-10-28T16:03:45;21.90;99.90
14551;DHT22;7362;50.956;4.184;2022-10-28T16:11:50;21.80;99.90
14551;DHT22;7362;50.956;4.184;2022-10-28T16:14:52;21.80;99.90
14551;DHT22;7362;50.956;4.184;2022-10-28T16:17:27;21.70;99.90
14551;DHT22;7362;50.956;4.184;2022-10-28T16:20:19;21.70;99.90
14551;DHT22;7362;50.956;4.184;2022-10-28T16:22:47;21.60;99.90
14551;DHT22;7362;50.956;4.184;2022-10-28T16:25:41;21.60;99.90
14551;DHT22;7362;50.956;4.184;2022-10-28T16:34:33;21.60;99.90
14551;DHT22;7362;50.956;4.184;2022-10-28T16:37:02;21.60;99.90
14551;DHT22;7362;50.956;4.184;2022-10-28T16:39:33;21.50;99.90
14551;DHT22;7362;50.956;4.184;2022-10-28T16:42:07;21.50;99.90
14551;DHT22;7362;50.956;4.184;2022-10-28T16:44:44;21.40;99.90
14551;DHT22;7362;50.956;4.184;2022-10-28T16:47:21;21.30;99.90
14551;DHT22;7362;50.956;4.184;2022-10-28T16:49:58;21.20;99.90
14551;DHT22;7362;50.956;4.184;2022-10-28T16:52:27;21.10;99.90
14551;DHT22;7362;50.956;4.184;2022-10-28T16:54:59;21.00;99.90
14551;DHT22;7362;50.956;4.184;2022-10-28T16:57:43;21.00;99.90
14551;DHT22;7362;50.956;4.184;2022-10-28T17:00:13;21.00;99.90
14551;DHT22;7362;50.956;4.184;2022-10-28T17:02:50;21.00;99.90
14551;DHT22;7362;50.956;4.184;2022-10-28T17:05:23;20.90;99.90
14551;DHT22;7362;50.956;4.184;2022-10-28T17:07:51;20.90;99.90
14551;DHT22;7362;50.956;4.184;2022-10-28T17:10:28;20.80;99.90
14551;DHT22;7362;50.956;4.184;2022-10-28T17:12:57;20.80;99.90
14551;DHT22;7362;50.956;4.184;2022-10-28T17:15:26;20.80;99.90
14551;DHT22;7362;50.956;4.184;2022-10-28T17:17:52;20.80;99.90
14551;DHT22;7362;50.956;4.184;2022-10-28T17:20:18;20.70;99.90
14551;DHT22;7362;50.956;4.184;2022-10-28T17:22:45;20.70;99.90
14551;DHT22;7362;50.956;4.184;2022-10-28T17:25:27;20.70;99.90
14551;DHT22;7362;50.956;4.184;2022-10-28T17:28:00;20.70;99.90
14551;DHT22;7362;50.956;4.184;2022-10-28T17:30:30;20.70;99.90
14551;DHT22;7362;50.956;4.184;2022-10-28T17:33:11;20.70;99.90
14551;DHT22;7362;50.956;4.184;2022-10-28T17:35:47;20.70;99.90
14551;DHT22;7362;50.956;4.184;2022-10-28T17:38:17;20.70;99.90
14551;DHT22;7362;50.956;4.184;2022-10-28T17:40:42;20.70;99.90
14551;DHT22;7362;50.956;4.184;2022-10-28T17:54:48;20.40;99.90
14551;DHT22;7362;50.956;4.184;2022-10-28T17:57:48;20.40;99.90
14551;DHT22;7362;50.956;4.184;2022-10-28T18:01:20;20.30;99.90
14551;DHT22;7362;50.956;4.184;2022-10-28T23:26:23;19.20;99.90
14551;DHT22;7362;50.956;4.184;2022-10-28T23:28:55;19.30;99.90
14551;DHT22;7362;50.956;4.184;2022-10-28T23:31:22;19.30;99.90
14551;DHT22;7362;50.956;4.184;2022-10-28T23:33:49;19.20;99.90
14551;DHT22;7362;50.956;4.184;2022-10-28T23:36:17;19.30;99.90
14551;DHT22;7362;50.956;4.184;2022-10-28T23:38:43;19.30;99.90
14551;DHT22;7362;50.956;4.184;2022-10-28T23:41:13;19.20;99.90
14551;DHT22;7362;50.956;4.184;2022-10-28T23:43:40;19.20;99.90
14551;DHT22;7362;50.956;4.184;2022-10-28T23:46:08;19.20;99.90
14551;DHT22;7362;50.956;4.184;2022-10-28T23:48:34;19.10;99.90
14551;DHT22;7362;50.956;4.184;2022-10-28T23:50:59;18.90;99.90
14551;DHT22;7362;50.956;4.184;2022-10-28T23:53:26;18.70;99.90
14551;DHT22;7362;50.956;4.184;2022-10-28T23:55:51;18.70;99.90
14551;DHT22;7362;50.956;4.184;2022-10-28T23:58:19;18.80;99.90
